sensor_id;sensor_type;location;lat;lon;timestamp;P1;durP1;ratioP1;P2;durP2;ratioP2
84989;SDS011;75307;53.836;10.476;2024-02-26T00:01:59;6.60;;;4.00;;
84989;SDS011;75307;53.836;10.476;2024-02-26T00:04:01;6.22;;;3.67;;
84989;SDS011;75307;53.836;10.476;2024-02-26T00:06:03;5.35;;;3.00;;
84989;SDS011;75307;53.836;10.476;2024-02-26T00:08:06;6.07;;;2.97;;
84989;SDS011;75307;53.836;10.476;2024-02-26T00:10:08;6.10;;;3.33;;
84989;SDS011;75307;53.836;10.476;2024-02-26T00:12:10;7.57;;;2.58;;
84989;SDS011;75307;53.836;10.476;2024-02-26T00:14:11;6.78;;;2.80;;
84989;SDS011;75307;53.836;10.476;2024-02-26T00:16:13;6.32;;;3.38;;
84989;SDS011;75307;53.836;10.476;2024-02-26T00:18:14;7.60;;;3.40;;
84989;SDS011;75307;53.836;10.476;2024-02-26T00:20:18;6.00;;;3.92;;
84989;SDS011;75307;53.836;10.476;2024-02-26T00:22:20;7.90;;;3.95;;
84989;SDS011;75307;53.836;10.476;2024-02-26T00:24:22;5.63;;;3.85;;
84989;SDS011;75307;53.836;10.476;2024-02-26T00:26:23;6.55;;;3.20;;
84989;SDS011;75307;53.836;10.476;2024-02-26T00:28:24;6.53;;;3.42;;
84989;SDS011;75307;53.836;10.476;2024-02-26T00:30:27;5.93;;;3.20;;
84989;SDS011;75307;53.836;10.476;2024-02-26T00:32:29;6.28;;;3.17;;
84989;SDS011;75307;53.836;10.476;2024-02-26T00:34:31;6.05;;;3.97;;
84989;SDS011;75307;53.836;10.476;2024-02-26T00:36:34;6.50;;;3.92;;
84989;SDS011;75307;53.836;10.476;2024-02-26T00:38:35;5.78;;;3.47;;
84989;SDS011;75307;53.836;10.476;2024-02-26T00:40:37;8.02;;;4.22;;
84989;SDS011;75307;53.836;10.476;2024-02-26T00:42:39;6.20;;;3.58;;
84989;SDS011;75307;53.836;10.476;2024-02-26T00:45:02;8.30;;;4.32;;
84989;SDS011;75307;53.836;10.476;2024-02-26T00:47:04;7.93;;;3.45;;
84989;SDS011;75307;53.836;10.476;2024-02-26T00:49:06;7.25;;;3.72;;
84989;SDS011;75307;53.836;10.476;2024-02-26T00:51:08;8.07;;;3.65;;
84989;SDS011;75307;53.836;10.476;2024-02-26T00:53:11;8.35;;;3.97;;
84989;SDS011;75307;53.836;10.476;2024-02-26T00:55:12;9.50;;;5.10;;
84989;SDS011;75307;53.836;10.476;2024-02-26T00:57:14;9.57;;;3.97;;
84989;SDS011;75307;53.836;10.476;2024-02-26T00:59:16;8.07;;;4.40;;
84989;SDS011;75307;53.836;10.476;2024-02-26T01:01:18;7.60;;;3.67;;
84989;SDS011;75307;53.836;10.476;2024-02-26T01:03:18;6.93;;;3.95;;
84989;SDS011;75307;53.836;10.476;2024-02-26T01:05:20;9.63;;;3.92;;
84989;SDS011;75307;53.836;10.476;2024-02-26T01:07:22;8.57;;;4.13;;
84989;SDS011;75307;53.836;10.476;2024-02-26T01:09:24;7.90;;;4.15;;
84989;SDS011;75307;53.836;10.476;2024-02-26T01:11:26;6.78;;;3.42;;
84989;SDS011;75307;53.836;10.476;2024-02-26T01:13:28;7.32;;;4.65;;
84989;SDS011;75307;53.836;10.476;2024-02-26T01:15:29;8.75;;;3.88;;
84989;SDS011;75307;53.836;10.476;2024-02-26T01:17:31;7.78;;;3.88;;
84989;SDS011;75307;53.836;10.476;2024-02-26T01:19:33;8.18;;;4.85;;
84989;SDS011;75307;53.836;10.476;2024-02-26T01:21:35;8.32;;;5.03;;
84989;SDS011;75307;53.836;10.476;2024-02-26T01:23:36;7.20;;;3.83;;
84989;SDS011;75307;53.836;10.476;2024-02-26T01:25:39;6.68;;;3.25;;
84989;SDS011;75307;53.836;10.476;2024-02-26T01:27:40;7.43;;;3.50;;
84989;SDS011;75307;53.836;10.476;2024-02-26T01:29:44;7.47;;;4.07;;
84989;SDS011;75307;53.836;10.476;2024-02-26T01:31:45;6.00;;;4.05;;
84989;SDS011;75307;53.836;10.476;2024-02-26T01:33:47;7.25;;;3.60;;
84989;SDS011;75307;53.836;10.476;2024-02-26T01:35:49;8.45;;;4.13;;
84989;SDS011;75307;53.836;10.476;2024-02-26T01:37:49;9.20;;;3.55;;
84989;SDS011;75307;53.836;10.476;2024-02-26T01:39:51;9.00;;;3.80;;
84989;SDS011;75307;53.836;10.476;2024-02-26T01:41:54;7.55;;;4.55;;
84989;SDS011;75307;53.836;10.476;2024-02-26T01:43:56;7.60;;;4.55;;
84989;SDS011;75307;53.836;10.476;2024-02-26T01:45:58;6.93;;;4.47;;
84989;SDS011;75307;53.836;10.476;2024-02-26T01:47:59;7.45;;;3.42;;
84989;SDS011;75307;53.836;10.476;2024-02-26T01:50:02;6.43;;;3.40;;
84989;SDS011;75307;53.836;10.476;2024-02-26T01:52:03;7.93;;;3.97;;
84989;SDS011;75307;53.836;10.476;2024-02-26T01:54:07;8.52;;;4.60;;
84989;SDS011;75307;53.836;10.476;2024-02-26T01:56:09;7.28;;;4.55;;
84989;SDS011;75307;53.836;10.476;2024-02-26T01:58:12;11.02;;;3.90;;
84989;SDS011;75307;53.836;10.476;2024-02-26T02:00:15;11.13;;;4.35;;
84989;SDS011;75307;53.836;10.476;2024-02-26T02:02:17;9.60;;;4.53;;
84989;SDS011;75307;53.836;10.476;2024-02-26T02:04:20;8.80;;;3.65;;
84989;SDS011;75307;53.836;10.476;2024-02-26T02:06:22;9.05;;;4.05;;
84989;SDS011;75307;53.836;10.476;2024-02-26T02:08:23;7.57;;;4.38;;
84989;SDS011;75307;53.836;10.476;2024-02-26T02:10:25;10.85;;;5.50;;
84989;SDS011;75307;53.836;10.476;2024-02-26T02:12:28;7.38;;;4.32;;
84989;SDS011;75307;53.836;10.476;2024-02-26T02:14:31;8.68;;;5.05;;
84989;SDS011;75307;53.836;10.476;2024-02-26T02:16:33;8.38;;;4.90;;
84989;SDS011;75307;53.836;10.476;2024-02-26T02:18:35;9.02;;;4.07;;
84989;SDS011;75307;53.836;10.476;2024-02-26T02:20:38;9.32;;;4.20;;
84989;SDS011;75307;53.836;10.476;2024-02-26T02:22:38;9.00;;;4.93;;
84989;SDS011;75307;53.836;10.476;2024-02-26T02:24:40;8.10;;;5.03;;
84989;SDS011;75307;53.836;10.476;2024-02-26T02:26:42;8.90;;;4.28;;
84989;SDS011;75307;53.836;10.476;2024-02-26T02:28:43;8.65;;;4.75;;
84989;SDS011;75307;53.836;10.476;2024-02-26T02:30:47;8.55;;;3.97;;
84989;SDS011;75307;53.836;10.476;2024-02-26T02:32:50;7.75;;;4.53;;
84989;SDS011;75307;53.836;10.476;2024-02-26T02:34:51;7.38;;;3.83;;
84989;SDS011;75307;53.836;10.476;2024-02-26T02:36:54;8.85;;;4.93;;
84989;SDS011;75307;53.836;10.476;2024-02-26T02:38:56;9.48;;;5.38;;
84989;SDS011;75307;53.836;10.476;2024-02-26T02:40:57;9.30;;;4.00;;
84989;SDS011;75307;53.836;10.476;2024-02-26T02:42:59;11.93;;;4.40;;
84989;SDS011;75307;53.836;10.476;2024-02-26T02:45:02;8.73;;;4.88;;
84989;SDS011;75307;53.836;10.476;2024-02-26T02:47:04;8.85;;;4.45;;
84989;SDS011;75307;53.836;10.476;2024-02-26T02:49:07;14.45;;;5.15;;
84989;SDS011;75307;53.836;10.476;2024-02-26T02:51:10;10.43;;;4.53;;
84989;SDS011;75307;53.836;10.476;2024-02-26T02:53:13;13.43;;;4.75;;
84989;SDS011;75307;53.836;10.476;2024-02-26T02:55:16;10.27;;;5.15;;
84989;SDS011;75307;53.836;10.476;2024-02-26T02:57:17;10.63;;;5.97;;
84989;SDS011;75307;53.836;10.476;2024-02-26T02:59:19;8.80;;;4.18;;
84989;SDS011;75307;53.836;10.476;2024-02-26T03:01:21;10.50;;;4.38;;
84989;SDS011;75307;53.836;10.476;2024-02-26T03:03:22;9.95;;;4.28;;
84989;SDS011;75307;53.836;10.476;2024-02-26T03:05:25;12.43;;;4.57;;
84989;SDS011;75307;53.836;10.476;2024-02-26T03:07:27;8.02;;;3.85;;
84989;SDS011;75307;53.836;10.476;2024-02-26T03:09:30;7.70;;;4.47;;
84989;SDS011;75307;53.836;10.476;2024-02-26T03:11:32;7.88;;;4.82;;
84989;SDS011;75307;53.836;10.476;2024-02-26T03:13:33;9.07;;;4.40;;
84989;SDS011;75307;53.836;10.476;2024-02-26T03:15:35;7.53;;;4.03;;
84989;SDS011;75307;53.836;10.476;2024-02-26T03:17:37;8.30;;;4.97;;
84989;SDS011;75307;53.836;10.476;2024-02-26T03:19:38;9.25;;;4.88;;
84989;SDS011;75307;53.836;10.476;2024-02-26T03:21:41;8.63;;;4.35;;
84989;SDS011;75307;53.836;10.476;2024-02-26T03:23:42;7.82;;;4.28;;
84989;SDS011;75307;53.836;10.476;2024-02-26T03:25:45;9.93;;;4.35;;
84989;SDS011;75307;53.836;10.476;2024-02-26T03:27:48;8.25;;;4.45;;
84989;SDS011;75307;53.836;10.476;2024-02-26T03:29:48;7.90;;;4.70;;
84989;SDS011;75307;53.836;10.476;2024-02-26T03:31:50;7.22;;;3.95;;
84989;SDS011;75307;53.836;10.476;2024-02-26T03:33:52;7.80;;;2.97;;
84989;SDS011;75307;53.836;10.476;2024-02-26T03:35:53;7.13;;;4.22;;
84989;SDS011;75307;53.836;10.476;2024-02-26T03:37:55;8.20;;;4.15;;
84989;SDS011;75307;53.836;10.476;2024-02-26T03:39:57;8.05;;;3.25;;
84989;SDS011;75307;53.836;10.476;2024-02-26T03:42:00;7.20;;;3.40;;
84989;SDS011;75307;53.836;10.476;2024-02-26T03:44:02;7.38;;;3.50;;
84989;SDS011;75307;53.836;10.476;2024-02-26T03:46:06;8.30;;;4.72;;
84989;SDS011;75307;53.836;10.476;2024-02-26T03:48:08;8.50;;;4.80;;
84989;SDS011;75307;53.836;10.476;2024-02-26T03:50:09;9.60;;;5.90;;
84989;SDS011;75307;53.836;10.476;2024-02-26T03:52:11;10.70;;;5.45;;
84989;SDS011;75307;53.836;10.476;2024-02-26T03:54:12;8.82;;;5.30;;
84989;SDS011;75307;53.836;10.476;2024-02-26T03:56:14;11.23;;;5.47;;
84989;SDS011;75307;53.836;10.476;2024-02-26T03:58:17;12.50;;;5.10;;
84989;SDS011;75307;53.836;10.476;2024-02-26T04:00:19;11.43;;;4.70;;
84989;SDS011;75307;53.836;10.476;2024-02-26T04:02:21;8.25;;;4.25;;
84989;SDS011;75307;53.836;10.476;2024-02-26T04:04:23;10.68;;;4.97;;
84989;SDS011;75307;53.836;10.476;2024-02-26T04:06:25;12.32;;;5.97;;
84989;SDS011;75307;53.836;10.476;2024-02-26T04:08:27;17.58;;;5.90;;
84989;SDS011;75307;53.836;10.476;2024-02-26T04:10:28;12.95;;;4.68;;
84989;SDS011;75307;53.836;10.476;2024-02-26T04:12:30;13.18;;;4.97;;
84989;SDS011;75307;53.836;10.476;2024-02-26T04:14:33;11.20;;;5.22;;
84989;SDS011;75307;53.836;10.476;2024-02-26T04:16:35;10.15;;;4.60;;
84989;SDS011;75307;53.836;10.476;2024-02-26T04:18:37;10.93;;;5.20;;
84989;SDS011;75307;53.836;10.476;2024-02-26T04:20:39;9.95;;;5.10;;
84989;SDS011;75307;53.836;10.476;2024-02-26T04:22:42;9.75;;;5.10;;
84989;SDS011;75307;53.836;10.476;2024-02-26T04:24:44;9.80;;;4.38;;
84989;SDS011;75307;53.836;10.476;2024-02-26T04:26:45;15.05;;;5.82;;
84989;SDS011;75307;53.836;10.476;2024-02-26T04:28:48;9.55;;;5.38;;
84989;SDS011;75307;53.836;10.476;2024-02-26T04:30:51;13.40;;;5.85;;
84989;SDS011;75307;53.836;10.476;2024-02-26T04:32:52;7.70;;;4.72;;
84989;SDS011;75307;53.836;10.476;2024-02-26T04:34:54;10.32;;;4.47;;
84989;SDS011;75307;53.836;10.476;2024-02-26T04:36:55;9.63;;;4.38;;
84989;SDS011;75307;53.836;10.476;2024-02-26T04:38:57;9.18;;;4.60;;
84989;SDS011;75307;53.836;10.476;2024-02-26T04:40:58;10.57;;;5.72;;
84989;SDS011;75307;53.836;10.476;2024-02-26T04:43:00;9.88;;;5.28;;
84989;SDS011;75307;53.836;10.476;2024-02-26T04:45:02;9.30;;;4.82;;
84989;SDS011;75307;53.836;10.476;2024-02-26T04:47:05;9.93;;;4.70;;
84989;SDS011;75307;53.836;10.476;2024-02-26T04:49:07;9.23;;;5.45;;
84989;SDS011;75307;53.836;10.476;2024-02-26T04:51:09;10.05;;;4.53;;
84989;SDS011;75307;53.836;10.476;2024-02-26T04:53:10;9.73;;;5.20;;
84989;SDS011;75307;53.836;10.476;2024-02-26T04:55:12;11.95;;;5.18;;
84989;SDS011;75307;53.836;10.476;2024-02-26T04:57:13;14.25;;;5.15;;
84989;SDS011;75307;53.836;10.476;2024-02-26T04:59:15;18.38;;;4.97;;
84989;SDS011;75307;53.836;10.476;2024-02-26T05:01:17;9.23;;;5.82;;
84989;SDS011;75307;53.836;10.476;2024-02-26T05:03:21;9.73;;;5.65;;
84989;SDS011;75307;53.836;10.476;2024-02-26T05:05:23;11.02;;;5.68;;
84989;SDS011;75307;53.836;10.476;2024-02-26T05:07:25;10.75;;;4.55;;
84989;SDS011;75307;53.836;10.476;2024-02-26T05:09:26;8.25;;;4.30;;
84989;SDS011;75307;53.836;10.476;2024-02-26T05:11:27;8.52;;;4.82;;
84989;SDS011;75307;53.836;10.476;2024-02-26T05:13:29;11.20;;;5.43;;
84989;SDS011;75307;53.836;10.476;2024-02-26T05:15:30;17.98;;;5.30;;
84989;SDS011;75307;53.836;10.476;2024-02-26T05:17:32;9.52;;;4.43;;
84989;SDS011;75307;53.836;10.476;2024-02-26T05:19:35;10.63;;;5.30;;
84989;SDS011;75307;53.836;10.476;2024-02-26T05:21:37;12.48;;;5.68;;
84989;SDS011;75307;53.836;10.476;2024-02-26T05:23:39;14.75;;;5.05;;
84989;SDS011;75307;53.836;10.476;2024-02-26T05:25:43;9.30;;;4.90;;
84989;SDS011;75307;53.836;10.476;2024-02-26T05:27:47;12.35;;;4.82;;
84989;SDS011;75307;53.836;10.476;2024-02-26T05:29:49;9.00;;;5.20;;
84989;SDS011;75307;53.836;10.476;2024-02-26T05:31:52;10.50;;;5.28;;
84989;SDS011;75307;53.836;10.476;2024-02-26T05:33:54;10.35;;;5.03;;
84989;SDS011;75307;53.836;10.476;2024-02-26T05:35:56;9.55;;;5.25;;
84989;SDS011;75307;53.836;10.476;2024-02-26T05:38:04;9.07;;;4.63;;
84989;SDS011;75307;53.836;10.476;2024-02-26T05:40:06;8.93;;;5.65;;
84989;SDS011;75307;53.836;10.476;2024-02-26T05:42:08;8.82;;;4.97;;
84989;SDS011;75307;53.836;10.476;2024-02-26T05:44:09;11.68;;;6.40;;
84989;SDS011;75307;53.836;10.476;2024-02-26T05:46:12;9.77;;;5.65;;
84989;SDS011;75307;53.836;10.476;2024-02-26T05:48:13;8.40;;;4.72;;
84989;SDS011;75307;53.836;10.476;2024-02-26T05:50:15;12.20;;;6.50;;
84989;SDS011;75307;53.836;10.476;2024-02-26T05:52:18;11.00;;;6.20;;
84989;SDS011;75307;53.836;10.476;2024-02-26T05:54:20;13.07;;;6.32;;
84989;SDS011;75307;53.836;10.476;2024-02-26T05:56:22;11.70;;;6.50;;
84989;SDS011;75307;53.836;10.476;2024-02-26T05:58:24;11.75;;;5.85;;
84989;SDS011;75307;53.836;10.476;2024-02-26T06:00:25;12.20;;;5.35;;
84989;SDS011;75307;53.836;10.476;2024-02-26T06:02:27;9.85;;;5.38;;
84989;SDS011;75307;53.836;10.476;2024-02-26T06:04:29;13.35;;;5.90;;
84989;SDS011;75307;53.836;10.476;2024-02-26T06:06:31;12.57;;;6.38;;
84989;SDS011;75307;53.836;10.476;2024-02-26T06:08:34;14.80;;;6.60;;
84989;SDS011;75307;53.836;10.476;2024-02-26T06:10:34;16.30;;;6.13;;
84989;SDS011;75307;53.836;10.476;2024-02-26T06:12:36;11.73;;;6.55;;
84989;SDS011;75307;53.836;10.476;2024-02-26T06:14:37;14.20;;;5.88;;
84989;SDS011;75307;53.836;10.476;2024-02-26T06:16:39;14.63;;;6.57;;
84989;SDS011;75307;53.836;10.476;2024-02-26T06:18:41;12.10;;;5.65;;
84989;SDS011;75307;53.836;10.476;2024-02-26T06:20:42;12.35;;;6.20;;
84989;SDS011;75307;53.836;10.476;2024-02-26T06:22:45;11.52;;;5.15;;
84989;SDS011;75307;53.836;10.476;2024-02-26T06:24:47;15.25;;;7.18;;
84989;SDS011;75307;53.836;10.476;2024-02-26T06:26:49;13.77;;;6.55;;
84989;SDS011;75307;53.836;10.476;2024-02-26T06:28:51;12.80;;;6.25;;
84989;SDS011;75307;53.836;10.476;2024-02-26T06:30:52;11.25;;;6.03;;
84989;SDS011;75307;53.836;10.476;2024-02-26T06:32:54;12.93;;;5.47;;
84989;SDS011;75307;53.836;10.476;2024-02-26T06:34:55;12.55;;;5.93;;
84989;SDS011;75307;53.836;10.476;2024-02-26T06:36:57;16.73;;;6.43;;
84989;SDS011;75307;53.836;10.476;2024-02-26T06:38:58;12.85;;;6.03;;
84989;SDS011;75307;53.836;10.476;2024-02-26T06:41:01;11.50;;;5.30;;
84989;SDS011;75307;53.836;10.476;2024-02-26T06:43:04;12.40;;;5.82;;
84989;SDS011;75307;53.836;10.476;2024-02-26T06:45:06;13.20;;;5.90;;
84989;SDS011;75307;53.836;10.476;2024-02-26T06:47:08;13.55;;;6.30;;
84989;SDS011;75307;53.836;10.476;2024-02-26T06:49:11;13.43;;;6.25;;
84989;SDS011;75307;53.836;10.476;2024-02-26T06:51:13;12.77;;;7.45;;
84989;SDS011;75307;53.836;10.476;2024-02-26T06:53:15;15.13;;;7.50;;
84989;SDS011;75307;53.836;10.476;2024-02-26T06:55:17;13.23;;;6.53;;
84989;SDS011;75307;53.836;10.476;2024-02-26T06:57:19;14.05;;;6.72;;
84989;SDS011;75307;53.836;10.476;2024-02-26T06:59:21;13.23;;;6.32;;
84989;SDS011;75307;53.836;10.476;2024-02-26T07:01:23;14.50;;;6.50;;
84989;SDS011;75307;53.836;10.476;2024-02-26T07:03:25;16.27;;;6.60;;
84989;SDS011;75307;53.836;10.476;2024-02-26T07:05:27;11.85;;;5.97;;
84989;SDS011;75307;53.836;10.476;2024-02-26T07:07:28;16.73;;;6.93;;
84989;SDS011;75307;53.836;10.476;2024-02-26T07:09:29;14.98;;;6.72;;
84989;SDS011;75307;53.836;10.476;2024-02-26T07:11:31;17.63;;;6.38;;
84989;SDS011;75307;53.836;10.476;2024-02-26T07:13:34;14.07;;;7.55;;
84989;SDS011;75307;53.836;10.476;2024-02-26T07:15:36;13.48;;;6.72;;
84989;SDS011;75307;53.836;10.476;2024-02-26T07:17:37;12.23;;;6.10;;
84989;SDS011;75307;53.836;10.476;2024-02-26T07:19:42;14.98;;;7.13;;
84989;SDS011;75307;53.836;10.476;2024-02-26T07:21:43;15.45;;;7.05;;
84989;SDS011;75307;53.836;10.476;2024-02-26T07:23:45;12.00;;;5.43;;
84989;SDS011;75307;53.836;10.476;2024-02-26T07:25:46;15.68;;;7.68;;
84989;SDS011;75307;53.836;10.476;2024-02-26T07:27:49;15.23;;;6.57;;
84989;SDS011;75307;53.836;10.476;2024-02-26T07:29:52;15.02;;;7.20;;
84989;SDS011;75307;53.836;10.476;2024-02-26T07:31:54;14.52;;;7.05;;
84989;SDS011;75307;53.836;10.476;2024-02-26T07:33:55;13.68;;;6.13;;
84989;SDS011;75307;53.836;10.476;2024-02-26T07:35:57;13.90;;;6.13;;
84989;SDS011;75307;53.836;10.476;2024-02-26T07:37:59;14.48;;;6.97;;
84989;SDS011;75307;53.836;10.476;2024-02-26T07:40:00;16.67;;;6.68;;
84989;SDS011;75307;53.836;10.476;2024-02-26T07:42:01;14.50;;;6.32;;
84989;SDS011;75307;53.836;10.476;2024-02-26T07:44:03;16.65;;;6.53;;
84989;SDS011;75307;53.836;10.476;2024-02-26T07:46:06;13.63;;;6.00;;
84989;SDS011;75307;53.836;10.476;2024-02-26T07:48:08;13.65;;;6.85;;
84989;SDS011;75307;53.836;10.476;2024-02-26T07:50:10;13.20;;;6.95;;
84989;SDS011;75307;53.836;10.476;2024-02-26T07:52:12;16.30;;;7.32;;
84989;SDS011;75307;53.836;10.476;2024-02-26T07:54:13;15.38;;;6.68;;
84989;SDS011;75307;53.836;10.476;2024-02-26T07:56:16;12.80;;;6.28;;
84989;SDS011;75307;53.836;10.476;2024-02-26T07:58:18;15.68;;;7.82;;
84989;SDS011;75307;53.836;10.476;2024-02-26T08:00:20;15.43;;;7.18;;
84989;SDS011;75307;53.836;10.476;2024-02-26T08:04:25;12.15;;;6.25;;
84989;SDS011;75307;53.836;10.476;2024-02-26T08:06:26;13.57;;;6.65;;
84989;SDS011;75307;53.836;10.476;2024-02-26T08:08:28;15.88;;;7.05;;
84989;SDS011;75307;53.836;10.476;2024-02-26T08:10:30;15.93;;;6.35;;
84989;SDS011;75307;53.836;10.476;2024-02-26T08:12:32;13.95;;;6.63;;
84989;SDS011;75307;53.836;10.476;2024-02-26T08:14:34;17.50;;;7.75;;
84989;SDS011;75307;53.836;10.476;2024-02-26T08:16:36;18.70;;;8.35;;
84989;SDS011;75307;53.836;10.476;2024-02-26T08:18:38;18.95;;;7.90;;
84989;SDS011;75307;53.836;10.476;2024-02-26T08:20:40;23.50;;;8.15;;
84989;SDS011;75307;53.836;10.476;2024-02-26T08:22:41;19.92;;;8.20;;
84989;SDS011;75307;53.836;10.476;2024-02-26T08:24:43;18.65;;;8.10;;
84989;SDS011;75307;53.836;10.476;2024-02-26T08:26:45;16.33;;;7.40;;
84989;SDS011;75307;53.836;10.476;2024-02-26T08:28:47;30.13;;;9.80;;
84989;SDS011;75307;53.836;10.476;2024-02-26T08:30:49;18.48;;;7.93;;
84989;SDS011;75307;53.836;10.476;2024-02-26T08:32:51;51.42;;;12.48;;
84989;SDS011;75307;53.836;10.476;2024-02-26T08:34:54;20.58;;;9.80;;
84989;SDS011;75307;53.836;10.476;2024-02-26T08:36:56;30.40;;;9.07;;
84989;SDS011;75307;53.836;10.476;2024-02-26T08:38:57;22.70;;;10.15;;
84989;SDS011;75307;53.836;10.476;2024-02-26T08:40:59;29.92;;;9.73;;
84989;SDS011;75307;53.836;10.476;2024-02-26T08:43:01;23.67;;;10.35;;
84989;SDS011;75307;53.836;10.476;2024-02-26T08:45:03;29.10;;;11.23;;
84989;SDS011;75307;53.836;10.476;2024-02-26T08:47:05;35.58;;;11.60;;
84989;SDS011;75307;53.836;10.476;2024-02-26T08:49:07;30.67;;;9.95;;
84989;SDS011;75307;53.836;10.476;2024-02-26T08:51:09;32.92;;;10.40;;
84989;SDS011;75307;53.836;10.476;2024-02-26T08:53:11;29.92;;;10.57;;
84989;SDS011;75307;53.836;10.476;2024-02-26T08:55:13;34.22;;;13.00;;
84989;SDS011;75307;53.836;10.476;2024-02-26T08:57:14;41.45;;;12.23;;
84989;SDS011;75307;53.836;10.476;2024-02-26T08:59:16;39.95;;;11.50;;
84989;SDS011;75307;53.836;10.476;2024-02-26T09:01:22;36.25;;;11.95;;
84989;SDS011;75307;53.836;10.476;2024-02-26T09:03:24;31.20;;;11.10;;
84989;SDS011;75307;53.836;10.476;2024-02-26T09:05:26;32.60;;;11.50;;
84989;SDS011;75307;53.836;10.476;2024-02-26T09:07:28;39.05;;;12.57;;
84989;SDS011;75307;53.836;10.476;2024-02-26T09:09:30;32.55;;;11.82;;
84989;SDS011;75307;53.836;10.476;2024-02-26T09:11:31;34.17;;;12.07;;
84989;SDS011;75307;53.836;10.476;2024-02-26T09:13:33;37.28;;;11.35;;
84989;SDS011;75307;53.836;10.476;2024-02-26T09:15:34;38.00;;;13.00;;
84989;SDS011;75307;53.836;10.476;2024-02-26T09:17:36;41.05;;;11.65;;
84989;SDS011;75307;53.836;10.476;2024-02-26T09:19:37;37.22;;;12.80;;
84989;SDS011;75307;53.836;10.476;2024-02-26T09:21:41;36.83;;;11.85;;
84989;SDS011;75307;53.836;10.476;2024-02-26T09:23:44;36.67;;;11.77;;
84989;SDS011;75307;53.836;10.476;2024-02-26T09:25:45;37.50;;;12.80;;
84989;SDS011;75307;53.836;10.476;2024-02-26T09:27:47;34.30;;;13.70;;
84989;SDS011;75307;53.836;10.476;2024-02-26T09:29:49;39.58;;;13.25;;
84989;SDS011;75307;53.836;10.476;2024-02-26T09:31:51;42.65;;;11.35;;
84989;SDS011;75307;53.836;10.476;2024-02-26T09:33:52;41.30;;;11.93;;
84989;SDS011;75307;53.836;10.476;2024-02-26T09:35:54;44.20;;;13.90;;
84989;SDS011;75307;53.836;10.476;2024-02-26T09:37:56;47.58;;;12.20;;
84989;SDS011;75307;53.836;10.476;2024-02-26T09:39:59;35.92;;;12.77;;
84989;SDS011;75307;53.836;10.476;2024-02-26T09:42:01;40.35;;;12.13;;
84989;SDS011;75307;53.836;10.476;2024-02-26T09:44:06;40.30;;;12.95;;
84989;SDS011;75307;53.836;10.476;2024-02-26T09:46:08;36.25;;;11.45;;
84989;SDS011;75307;53.836;10.476;2024-02-26T09:48:10;40.00;;;12.38;;
84989;SDS011;75307;53.836;10.476;2024-02-26T09:50:14;39.30;;;11.77;;
84989;SDS011;75307;53.836;10.476;2024-02-26T09:52:18;40.72;;;10.90;;
84989;SDS011;75307;53.836;10.476;2024-02-26T09:54:21;34.95;;;11.18;;
84989;SDS011;75307;53.836;10.476;2024-02-26T09:56:27;30.73;;;10.63;;
84989;SDS011;75307;53.836;10.476;2024-02-26T09:58:32;39.70;;;11.68;;
84989;SDS011;75307;53.836;10.476;2024-02-26T10:00:36;34.15;;;12.15;;
84989;SDS011;75307;53.836;10.476;2024-02-26T10:02:39;37.28;;;12.48;;
84989;SDS011;75307;53.836;10.476;2024-02-26T10:04:42;33.53;;;10.32;;
84989;SDS011;75307;53.836;10.476;2024-02-26T10:06:44;44.03;;;14.48;;
84989;SDS011;75307;53.836;10.476;2024-02-26T10:08:47;38.45;;;13.13;;
84989;SDS011;75307;53.836;10.476;2024-02-26T10:10:49;36.10;;;11.15;;
84989;SDS011;75307;53.836;10.476;2024-02-26T10:12:53;39.53;;;11.90;;
84989;SDS011;75307;53.836;10.476;2024-02-26T10:14:55;33.42;;;11.25;;
84989;SDS011;75307;53.836;10.476;2024-02-26T10:16:56;30.80;;;10.25;;
84989;SDS011;75307;53.836;10.476;2024-02-26T10:18:58;30.27;;;10.85;;
84989;SDS011;75307;53.836;10.476;2024-02-26T10:21:00;34.22;;;11.18;;
84989;SDS011;75307;53.836;10.476;2024-02-26T10:23:02;31.98;;;12.60;;
84989;SDS011;75307;53.836;10.476;2024-02-26T10:25:05;28.70;;;11.32;;
84989;SDS011;75307;53.836;10.476;2024-02-26T10:27:08;27.40;;;11.02;;
84989;SDS011;75307;53.836;10.476;2024-02-26T10:29:11;31.08;;;10.38;;
84989;SDS011;75307;53.836;10.476;2024-02-26T10:31:13;29.73;;;12.10;;
84989;SDS011;75307;53.836;10.476;2024-02-26T10:33:15;32.92;;;12.55;;
84989;SDS011;75307;53.836;10.476;2024-02-26T10:35:17;31.08;;;10.43;;
84989;SDS011;75307;53.836;10.476;2024-02-26T10:37:20;31.42;;;10.35;;
84989;SDS011;75307;53.836;10.476;2024-02-26T10:39:23;25.90;;;10.10;;
84989;SDS011;75307;53.836;10.476;2024-02-26T10:41:24;23.50;;;9.85;;
84989;SDS011;75307;53.836;10.476;2024-02-26T10:43:26;25.38;;;9.60;;
84989;SDS011;75307;53.836;10.476;2024-02-26T10:45:29;23.60;;;9.05;;
84989;SDS011;75307;53.836;10.476;2024-02-26T10:47:30;22.90;;;8.95;;
84989;SDS011;75307;53.836;10.476;2024-02-26T10:49:35;24.13;;;9.10;;
84989;SDS011;75307;53.836;10.476;2024-02-26T10:51:37;26.38;;;9.13;;
84989;SDS011;75307;53.836;10.476;2024-02-26T10:53:39;22.45;;;8.73;;
84989;SDS011;75307;53.836;10.476;2024-02-26T10:55:45;24.55;;;9.75;;
84989;SDS011;75307;53.836;10.476;2024-02-26T10:57:52;23.98;;;8.82;;
84989;SDS011;75307;53.836;10.476;2024-02-26T10:59:54;24.23;;;8.93;;
84989;SDS011;75307;53.836;10.476;2024-02-26T11:01:57;20.92;;;9.00;;
84989;SDS011;75307;53.836;10.476;2024-02-26T11:04:00;20.80;;;8.27;;
84989;SDS011;75307;53.836;10.476;2024-02-26T11:06:03;22.45;;;8.90;;
84989;SDS011;75307;53.836;10.476;2024-02-26T11:08:06;21.15;;;9.50;;
84989;SDS011;75307;53.836;10.476;2024-02-26T11:10:08;22.40;;;8.52;;
84989;SDS011;75307;53.836;10.476;2024-02-26T11:12:11;21.30;;;9.38;;
84989;SDS011;75307;53.836;10.476;2024-02-26T11:14:14;24.98;;;9.68;;
84989;SDS011;75307;53.836;10.476;2024-02-26T11:16:16;21.77;;;8.13;;
84989;SDS011;75307;53.836;10.476;2024-02-26T11:18:21;20.88;;;9.20;;
84989;SDS011;75307;53.836;10.476;2024-02-26T11:20:24;21.83;;;10.07;;
84989;SDS011;75307;53.836;10.476;2024-02-26T11:22:29;22.15;;;9.10;;
84989;SDS011;75307;53.836;10.476;2024-02-26T11:24:32;22.08;;;8.65;;
84989;SDS011;75307;53.836;10.476;2024-02-26T11:26:34;22.35;;;8.50;;
84989;SDS011;75307;53.836;10.476;2024-02-26T11:28:39;20.63;;;8.63;;
84989;SDS011;75307;53.836;10.476;2024-02-26T11:30:43;19.40;;;9.13;;
84989;SDS011;75307;53.836;10.476;2024-02-26T11:32:47;24.63;;;9.38;;
84989;SDS011;75307;53.836;10.476;2024-02-26T11:34:50;20.38;;;7.90;;
84989;SDS011;75307;53.836;10.476;2024-02-26T11:36:52;22.05;;;9.57;;
84989;SDS011;75307;53.836;10.476;2024-02-26T11:38:55;18.27;;;8.90;;
84989;SDS011;75307;53.836;10.476;2024-02-26T11:40:57;19.80;;;8.48;;
84989;SDS011;75307;53.836;10.476;2024-02-26T11:42:59;25.63;;;9.40;;
84989;SDS011;75307;53.836;10.476;2024-02-26T11:45:01;19.77;;;7.68;;
84989;SDS011;75307;53.836;10.476;2024-02-26T11:47:09;20.33;;;8.40;;
84989;SDS011;75307;53.836;10.476;2024-02-26T11:51:33;17.77;;;8.02;;
84989;SDS011;75307;53.836;10.476;2024-02-26T11:53:38;18.08;;;7.40;;
84989;SDS011;75307;53.836;10.476;2024-02-26T11:55:48;17.33;;;7.50;;
84989;SDS011;75307;53.836;10.476;2024-02-26T11:58:10;20.70;;;7.55;;
84989;SDS011;75307;53.836;10.476;2024-02-26T12:00:12;16.95;;;7.18;;
84989;SDS011;75307;53.836;10.476;2024-02-26T12:04:45;18.02;;;8.43;;